Time;durP1;ratioP1;P1;durP2;ratioP2;P2;SDS_P1;SDS_P2;PMS_P1;PMS_P2;Temp;Humidity;BMP_temperature;BMP_pressure;BME280_temperature;BME280_humidity;BME280_pressure;Samples;Min_cycle;Max_cycle;Signal;HPM_P1;HPM_P2
2022/01/28 00:00:49;;;;;;;10.85;2.58;;;;;;;4.10;87.82;99843.70;1667302;86;20970;-72
2022/01/28 00:03:31;;;;;;;;;;;;;;;4.07;87.78;99839.45;1657193;85;20938;-72
2022/01/28 00:06:15;;;;;;;12.13;2.92;;;;;;;4.04;87.77;99842.02;1667600;84;20428;-72
2022/01/28 00:09:00;;;;;;;11.78;3.05;;;;;;;3.99;87.83;99842.45;1683324;83;20907;-72
2022/01/28 00:11:44;;;;;;;10.82;2.60;;;;;;;3.97;87.82;99865.90;1672647;84;21506;-73
2022/01/28 00:38:44;;;;;;;11.73;2.12;;;;;;;3.57;87.93;99879.15;1695473;84;20958;-72
2022/01/28 00:41:27;;;;;;;9.65;1.70;;;;;;;3.53;87.90;99875.73;1695049;84;20972;-72
2022/01/28 00:44:12;;;;;;;8.93;2.45;;;;;;;3.49;87.89;99880.84;1639967;86;20986;-72
2022/01/28 00:46:57;;;;;;;9.50;2.47;;;;;;;3.46;87.95;99885.95;1678273;83;20950;-72
2022/01/28 00:49:42;;;;;;;7.05;1.55;;;;;;;3.45;87.96;99885.53;1695444;84;20943;-72
2022/01/28 00:52:26;;;;;;;11.75;4.00;;;;;;;3.42;87.97;99890.20;1678557;83;20919;-72
2022/01/28 00:55:12;;;;;;;8.00;3.12;;;;;;;3.38;87.90;99899.14;1667135;86;21448;-72
2022/01/28 00:57:56;;;;;;;8.98;2.02;;;;;;;3.36;87.92;99904.67;1667733;85;21432;-72
2022/01/28 01:00:41;;;;;;;10.23;2.02;;;;;;;3.35;88.02;99907.66;1684125;84;20911;-72
2022/01/28 01:03:26;;;;;;;3.60;1.35;;;;;;;3.33;87.97;99899.98;1695210;83;20923;-72
2022/01/28 01:06:10;;;;;;;6.80;1.55;;;;;;;3.31;87.99;99891.89;1695657;84;20946;-72
2022/01/28 01:08:54;;;;;;;8.23;1.55;;;;;;;3.29;87.96;99898.28;1684420;82;20942;-72
2022/01/28 01:11:40;;;;;;;8.88;1.85;;;;;;;3.28;88.03;99891.89;1690551;83;410049;-72
2022/01/28 01:14:25;;;;;;;;;;;;;;;3.26;88.04;99890.61;1643321;86;20923;-72
2022/01/28 01:20:08;;;;;;;6.03;1.12;;;;;;;3.25;88.06;99904.66;1695514;84;20943;-72
2022/01/28 01:22:41;;;;;;;3.80;1.10;;;;;;;3.24;88.03;99906.78;1678956;84;20963;-72
2022/01/28 01:25:28;;;;;;;6.55;1.30;;;;;;;3.22;88.00;99914.44;1695663;84;20962;-72
2022/01/28 01:28:13;;;;;;;5.78;1.32;;;;;;;3.21;88.03;99901.66;1678168;84;21542;-72
2022/01/28 01:31:01;;;;;;;4.60;1.00;;;;;;;3.20;88.04;99914.86;1695682;84;20955;-72
2022/01/28 01:36:33;;;;;;;5.22;1.07;;;;;;;3.18;87.94;99914.43;1695633;84;20895;-72
2022/01/28 01:39:24;;;;;;;6.08;1.30;;;;;;;3.17;87.99;99921.66;1659380;84;22005;-72
2022/01/28 01:42:36;;;;;;;5.62;1.12;;;;;;;3.17;88.02;99914.00;1681007;83;20954;-72
2022/01/28 01:54:22;;;;;;;3.67;0.88;;;;;;;3.19;88.07;99927.20;1664800;83;21327;-72
2022/01/28 01:57:11;;;;;;;5.10;0.98;;;;;;;3.19;88.06;99923.38;1665563;84;21117;-72
2022/01/28 01:59:55;;;;;;;3.15;1.07;;;;;;;3.19;88.03;99915.71;1670538;85;20950;-72
2022/01/28 02:02:39;;;;;;;5.78;0.78;;;;;;;3.21;88.05;99930.62;1686624;83;20938;-72
2022/01/28 02:05:24;;;;;;;3.25;0.95;;;;;;;3.21;88.08;99939.56;1699894;84;21761;-72
2022/01/28 02:08:09;;;;;;;3.70;0.80;;;;;;;3.23;88.07;99928.06;1690890;83;20965;-72
2022/01/28 02:10:58;;;;;;;4.45;1.20;;;;;;;3.23;88.01;99940.42;1671328;84;20982;-72
2022/01/28 02:13:49;;;;;;;7.25;1.20;;;;;;;3.24;88.05;99946.38;1699701;84;20938;-72
2022/01/28 02:16:34;;;;;;;4.47;0.90;;;;;;;3.24;88.06;99947.23;1700321;82;20900;-72
2022/01/28 02:19:18;;;;;;;7.65;1.45;;;;;;;3.25;88.08;99951.49;1699980;84;20947;-72
2022/01/28 02:22:03;;;;;;;5.22;1.12;;;;;;;3.27;88.07;99955.33;1691148;83;20911;-72
2022/01/28 02:24:48;;;;;;;5.17;1.40;;;;;;;3.28;88.10;99942.98;1698775;84;21446;-72
2022/01/28 02:27:32;;;;;;;8.55;1.30;;;;;;;3.29;88.07;99949.80;1700001;84;20942;-72
2022/01/28 02:30:17;;;;;;;2.65;0.90;;;;;;;3.32;88.08;99952.37;1694383;84;20942;-72
2022/01/28 02:33:10;;;;;;;6.17;1.20;;;;;;;3.32;88.11;99958.33;1679926;83;20924;-72
2022/01/28 02:35:49;;;;;;;4.92;1.27;;;;;;;3.34;88.11;99959.61;1698877;84;20941;-72
2022/01/28 02:38:35;;;;;;;9.03;1.37;;;;;;;3.35;88.08;99949.81;1700284;83;20962;-72
2022/01/28 02:41:20;;;;;;;8.10;1.35;;;;;;;3.38;88.15;99975.38;1668627;84;20934;-72
2022/01/28 02:44:20;;;;;;;6.67;1.57;;;;;;;3.40;88.13;99975.38;1674214;83;20938;-72
2022/01/28 02:47:02;;;;;;;9.08;1.17;;;;;;;3.42;88.13;99974.97;1672061;85;20926;-72
2022/01/28 02:49:46;;;;;;;5.25;1.45;;;;;;;3.43;88.12;99986.89;1672300;83;20958;-72
2022/01/28 02:52:44;;;;;;;11.28;1.70;;;;;;;3.44;88.13;99970.71;1677974;84;20903;-72
2022/01/28 02:55:20;;;;;;;8.55;1.42;;;;;;;3.45;88.13;99979.66;1665748;84;21843;-72
2022/01/28 02:58:23;;;;;;;13.15;2.02;;;;;;;3.47;88.11;99954.11;1673726;83;20955;-72
2022/01/28 03:01:06;;;;;;;10.35;2.08;;;;;;;3.48;88.11;99971.14;1673026;83;20935;-72
2022/01/28 03:03:54;;;;;;;9.68;1.55;;;;;;;3.50;88.14;99978.39;1678656;84;21483;-72
2022/01/28 03:06:38;;;;;;;12.13;1.82;;;;;;;3.52;88.11;99978.83;1640553;85;20917;-72
2022/01/28 03:09:23;;;;;;;13.83;2.17;;;;;;;3.54;88.15;99982.23;1662793;83;20914;-72
2022/01/28 03:12:17;;;;;;;13.95;2.10;;;;;;;3.56;88.09;99988.20;1680584;84;20919;-72
2022/01/28 03:15:04;;;;;;;12.68;1.95;;;;;;;3.57;88.11;99991.62;1694987;84;20911;-72
2022/01/28 03:17:54;;;;;;;10.65;1.90;;;;;;;3.59;88.12;100001.00;1686793;82;20966;-72
2022/01/28 03:23:22;;;;;;;15.78;2.72;;;;;;;3.65;88.11;100000.13;1672850;83;21463;-72
2022/01/28 03:26:06;;;;;;;13.75;2.95;;;;;;;3.65;88.10;100005.23;1697760;84;20938;-72
2022/01/28 03:28:51;;;;;;;15.70;2.40;;;;;;;3.68;88.08;100015.89;1662688;83;20955;-72
2022/01/28 03:31:37;;;;;;;11.75;2.22;;;;;;;3.71;88.08;100012.07;1676731;84;20975;-72
2022/01/28 03:34:21;;;;;;;;;;;;;;;3.71;88.06;100005.25;1673888;84;20990;-72
2022/01/28 03:37:07;;;;;;;20.40;2.95;;;;;;;3.74;88.05;100010.80;1671749;85;20140;-72
2022/01/28 03:39:52;;;;;;;16.73;2.30;;;;;;;3.74;88.04;100015.48;1671376;85;20943;-72
2022/01/28 03:42:37;;;;;;;16.48;2.65;;;;;;;3.76;88.07;100010.37;1684881;84;20946;-72
2022/01/28 03:45:22;;;;;;;10.90;1.92;;;;;;;3.77;88.02;100019.75;1671673;83;20953;-72
2022/01/28 03:48:06;;;;;;;15.98;2.40;;;;;;;3.78;88.02;100024.88;1678795;84;20962;-72
2022/01/28 03:50:51;;;;;;;15.13;2.70;;;;;;;3.79;88.02;100032.12;1697336;84;21387;-72
2022/01/28 03:53:35;;;;;;;11.57;2.62;;;;;;;3.80;88.04;100031.27;1659728;86;20958;-72
2022/01/28 03:56:20;;;;;;;14.13;2.70;;;;;;;3.82;88.01;100035.96;1668159;83;20915;-72
2022/01/28 03:59:04;;;;;;;16.40;2.92;;;;;;;3.81;88.00;100044.48;1699849;84;20930;-72
2022/01/28 04:01:49;;;;;;;14.75;2.98;;;;;;;3.81;88.02;100049.59;1672784;84;20951;-72
2022/01/28 04:13:35;;;;;;;17.95;3.42;;;;;;;3.81;87.99;100077.72;1652749;85;20987;-72
2022/01/28 04:19:04;;;;;;;21.15;2.77;;;;;;;3.81;88.01;100073.46;1697660;83;20931;-72
2022/01/28 04:21:48;;;;;;;15.63;3.17;;;;;;;3.83;88.01;100087.53;1684013;84;20919;-71
2022/01/28 04:24:33;;;;;;;12.93;2.55;;;;;;;3.83;87.96;100080.72;1673343;83;20930;-72
2022/01/28 04:27:17;;;;;;;16.90;3.15;;;;;;;3.84;87.95;100078.59;1671247;85;20927;-72
2022/01/28 04:30:03;;;;;;;17.50;4.17;;;;;;;3.86;87.94;100097.34;1654334;84;20915;-72
2022/01/28 04:32:49;;;;;;;15.13;3.45;;;;;;;3.88;87.92;100103.75;1674105;83;21375;-72
2022/01/28 04:35:33;;;;;;;19.20;2.90;;;;;;;3.87;87.88;100113.55;1685896;83;20894;-72
2022/01/28 04:43:58;;;;;;;10.53;2.85;;;;;;;3.87;87.89;100126.33;1669480;84;20958;-72
2022/01/28 04:46:45;;;;;;;15.75;2.70;;;;;;;3.86;87.87;100127.19;1674062;83;21339;-72
2022/01/28 04:49:40;;;;;;;20.20;2.90;;;;;;;3.84;87.87;100142.52;1671580;85;21442;-72
2022/01/28 05:01:38;;;;;;;19.60;3.30;;;;;;;3.80;87.89;100168.08;1674834;83;20903;-72
2022/01/28 05:03:38;;;;;;;16.23;3.05;;;;;;;3.78;87.84;100174.46;1654504;86;21549;-72
2022/01/28 05:06:50;;;;;;;13.03;3.10;;;;;;;3.78;87.85;100183.83;1661104;83;21855;-72
2022/01/28 05:12:53;;;;;;;20.10;2.77;;;;;;;3.79;87.87;100195.77;1684384;83;20947;-72
2022/01/28 05:15:43;;;;;;;14.58;3.08;;;;;;;3.79;87.84;100200.89;1684206;84;20941;-72
2022/01/28 05:27:08;;;;;;;21.10;3.67;;;;;;;3.79;87.78;100227.31;1674100;83;20962;-72
2022/01/28 05:29:51;;;;;;;18.70;3.15;;;;;;;3.80;87.75;100242.23;1690194;84;20931;-72
2022/01/28 05:32:36;;;;;;;18.82;3.92;;;;;;;3.80;87.71;100247.34;1688199;83;20931;-72
2022/01/28 05:35:20;;;;;;;14.80;3.02;;;;;;;3.80;87.72;100255.02;1683034;83;20958;-72
2022/01/28 05:38:05;;;;;;;14.47;2.98;;;;;;;3.78;87.71;100262.69;1669173;84;21483;-72
2022/01/28 05:40:50;;;;;;;18.35;3.10;;;;;;;3.79;87.74;100269.51;1688197;83;20911;-72
2022/01/28 05:43:34;;;;;;;14.10;3.10;;;;;;;3.77;87.70;100277.59;1669977;85;20926;-72
2022/01/28 05:46:19;;;;;;;11.75;2.95;;;;;;;3.77;87.73;100283.98;1662363;84;20930;-72
2022/01/28 05:49:03;;;;;;;23.98;3.70;;;;;;;3.76;87.71;100287.39;1659609;84;20965;-72
2022/01/28 05:51:47;;;;;;;12.73;2.75;;;;;;;3.75;87.68;100286.95;1667637;83;20962;-72
2022/01/28 05:54:32;;;;;;;24.85;5.45;;;;;;;3.76;87.70;100296.77;1693195;84;20943;-72
2022/01/28 05:57:16;;;;;;;13.50;3.12;;;;;;;3.76;87.71;100298.90;1687917;84;21382;-72
2022/01/28 06:00:00;;;;;;;14.83;3.37;;;;;;;3.76;87.68;100310.83;1682041;83;21081;-72
2022/01/28 06:02:45;;;;;;;14.65;3.50;;;;;;;3.74;87.68;100303.14;1679896;83;20939;-72
2022/01/28 06:05:30;;;;;;;15.30;3.33;;;;;;;3.73;87.69;100317.20;1682361;84;21518;-72
2022/01/28 06:08:15;;;;;;;18.30;3.65;;;;;;;3.72;87.72;100331.69;1685075;84;20930;-72
2022/01/28 06:10:59;;;;;;;22.00;4.20;;;;;;;3.72;87.69;100323.16;1681823;83;21881;-72
2022/01/28 06:13:44;;;;;;;15.05;3.75;;;;;;;3.71;87.65;100333.81;1681615;83;20935;-72
2022/01/28 06:16:28;;;;;;;20.17;4.47;;;;;;;3.71;87.67;100336.36;1668112;84;20926;-72
2022/01/28 06:19:12;;;;;;;17.98;3.30;;;;;;;3.71;87.67;100348.30;1659863;84;21442;-71
2022/01/28 06:21:57;;;;;;;17.67;3.25;;;;;;;3.71;87.68;100357.24;1672263;83;20907;-72
2022/01/28 06:24:41;;;;;;;20.15;3.20;;;;;;;3.71;87.65;100342.76;1671394;84;20930;-72
2022/01/28 06:27:25;;;;;;;17.27;3.05;;;;;;;3.70;87.64;100368.31;1648872;85;20949;-72
2022/01/28 06:30:11;;;;;;;17.77;3.85;;;;;;;3.68;87.59;100365.75;1659267;84;20933;-71
2022/01/28 06:32:55;;;;;;;22.60;3.57;;;;;;;3.68;87.65;100374.69;1694286;83;21410;-71
2022/01/28 06:35:41;;;;;;;16.77;3.42;;;;;;;3.66;87.62;100379.80;1697335;84;21454;-71
2022/01/28 06:38:25;;;;;;;22.58;4.33;;;;;;;3.68;87.64;100393.87;1691642;83;20915;-71
2022/01/28 06:41:10;;;;;;;18.48;2.98;;;;;;;3.67;87.60;100389.60;1707080;81;20947;-71
2022/01/28 06:43:54;;;;;;;17.73;3.67;;;;;;;3.65;87.62;100404.07;1688283;83;20978;-71
2022/01/28 06:46:39;;;;;;;20.15;3.70;;;;;;;3.65;87.62;100411.74;1671644;83;20938;-71
2022/01/28 06:49:23;;;;;;;17.23;2.80;;;;;;;3.67;87.61;100425.39;1687468;84;20938;-71
2022/01/28 06:52:08;;;;;;;14.80;2.85;;;;;;;3.68;87.61;100430.09;1692659;83;21539;-71
2022/01/28 06:54:52;;;;;;;18.40;2.65;;;;;;;3.68;87.61;100446.28;1677601;84;20942;-71
2022/01/28 06:57:36;;;;;;;13.60;2.72;;;;;;;3.68;87.57;100439.03;1686652;84;20958;-72
2022/01/28 07:00:21;;;;;;;14.28;3.20;;;;;;;3.67;87.56;100454.80;1670484;83;20974;-72
2022/01/28 07:03:10;;;;;;;17.82;3.90;;;;;;;3.67;87.57;100444.57;1695303;83;20960;-72
2022/01/28 07:05:55;;;;;;;16.37;2.75;;;;;;;3.67;87.56;100456.08;1705056;83;21519;-72
2022/01/28 07:08:39;;;;;;;21.10;2.87;;;;;;;3.68;87.58;100464.19;1695690;83;20970;-72
2022/01/28 07:11:24;;;;;;;13.58;2.72;;;;;;;3.68;87.55;100473.13;1696711;82;20969;-72
2022/01/28 07:14:08;;;;;;;10.05;2.62;;;;;;;3.69;87.55;100476.55;1685058;84;20955;-72
2022/01/28 07:16:52;;;;;;;13.03;2.30;;;;;;;3.70;87.52;100483.38;1679071;83;20966;-72
2022/01/28 07:19:37;;;;;;;8.95;2.22;;;;;;;3.70;87.52;100491.91;1684428;84;20970;-72
2022/01/28 07:22:21;;;;;;;11.10;2.20;;;;;;;3.71;87.47;100504.27;1647867;83;20927;-72
2022/01/28 07:25:07;;;;;;;10.53;1.95;;;;;;;3.71;87.41;100503.84;1698883;83;20930;-72
2022/01/28 07:27:52;;;;;;;15.05;2.98;;;;;;;3.73;87.46;100524.32;1710764;82;20951;-72
2022/01/28 07:30:36;;;;;;;11.12;2.20;;;;;;;3.72;87.45;100526.02;1703666;83;21376;-71
2022/01/28 07:33:20;;;;;;;16.67;2.42;;;;;;;3.74;87.46;100540.95;1684726;83;20951;-72
2022/01/28 07:36:05;;;;;;;10.05;2.60;;;;;;;3.75;87.44;100544.38;1691323;83;20932;-72
2022/01/28 07:38:49;;;;;;;16.73;2.98;;;;;;;3.77;87.45;100555.48;1701954;82;20935;-71
2022/01/28 07:41:35;;;;;;;10.10;2.75;;;;;;;3.78;87.41;100563.16;1692266;83;20954;-72
2022/01/28 07:44:19;;;;;;;9.68;1.90;;;;;;;3.79;87.42;100570.00;1676584;83;20959;-73
2022/01/28 07:47:04;;;;;;;9.05;1.80;;;;;;;3.80;87.41;100590.89;1707970;82;20963;-72
2022/01/28 07:49:49;;;;;;;12.87;2.57;;;;;;;3.81;87.42;100592.61;1678338;83;20931;-71
2022/01/28 07:52:35;;;;;;;9.35;2.17;;;;;;;3.83;87.41;100594.77;1706864;83;20919;-71
2022/01/28 07:55:19;;;;;;;;;;;;;;;3.86;87.41;100599.05;1685882;83;20998;-71
2022/01/28 07:58:04;;;;;;;13.38;2.22;;;;;;;3.86;87.33;100611.84;1706125;83;20150;-72
2022/01/28 08:00:48;;;;;;;13.05;2.25;;;;;;;3.88;87.35;100615.28;1714857;82;20907;-72
2022/01/28 08:03:33;;;;;;;11.00;2.22;;;;;;;3.88;87.32;100617.41;1715842;82;20892;-71
2022/01/28 08:06:18;;;;;;;8.15;2.10;;;;;;;3.90;87.36;100636.62;1670985;82;20899;-72
2022/01/28 08:09:03;;;;;;;9.85;2.08;;;;;;;3.93;87.35;100635.38;1711502;82;20947;-72
2022/01/28 08:11:47;;;;;;;13.43;2.47;;;;;;;3.93;87.27;100647.74;1717390;82;20911;-72
2022/01/28 08:14:32;;;;;;;10.38;3.10;;;;;;;3.94;87.28;100645.62;1697546;82;20960;-72
2022/01/28 08:17:17;;;;;;;10.43;2.60;;;;;;;3.95;87.28;100657.57;1716257;82;20900;-71
2022/01/28 08:20:01;;;;;;;8.73;2.08;;;;;;;3.97;87.28;100652.05;1685679;82;20922;-72
2022/01/28 08:22:50;;;;;;;11.55;2.40;;;;;;;3.99;87.28;100667.42;1721696;81;20937;-72
2022/01/28 08:25:36;;;;;;;10.63;2.45;;;;;;;4.00;87.22;100678.09;1717510;82;20947;-72
2022/01/28 08:28:20;;;;;;;11.10;2.33;;;;;;;3.98;87.19;100689.59;1702417;82;20946;-72
2022/01/28 08:31:05;;;;;;;5.97;1.85;;;;;;;3.97;87.17;100696.83;1673159;84;21757;-72
2022/01/28 08:33:49;;;;;;;5.72;1.50;;;;;;;3.96;87.20;100704.05;1702440;82;20935;-72
2022/01/28 08:36:34;;;;;;;8.45;2.22;;;;;;;3.98;87.17;100719.42;1692848;82;20970;-72
2022/01/28 08:39:21;;;;;;;10.45;2.17;;;;;;;4.01;87.19;100718.19;1686385;84;21563;-72
2022/01/28 08:42:05;;;;;;;7.37;1.75;;;;;;;4.06;87.24;100725.50;1701268;82;20919;-71
2022/01/28 08:44:50;;;;;;;8.20;1.70;;;;;;;4.09;87.20;100738.33;1676051;82;20964;-72
2022/01/28 08:47:34;;;;;;;7.37;1.52;;;;;;;4.10;87.11;100727.67;1698505;82;20968;-71
2022/01/28 08:50:18;;;;;;;7.30;2.05;;;;;;;4.10;87.14;100748.14;1682701;82;20910;-72
2022/01/28 08:53:03;;;;;;;9.60;1.92;;;;;;;4.10;87.08;100759.66;1693120;82;20947;-72
2022/01/28 08:55:47;;;;;;;5.75;2.00;;;;;;;4.10;87.08;100762.22;1694714;82;20899;-71
2022/01/28 08:58:32;;;;;;;12.00;1.95;;;;;;;4.10;87.09;100772.03;1678794;84;20979;-71
2022/01/28 09:01:16;;;;;;;10.05;1.98;;;;;;;4.11;87.08;100789.11;1682163;84;20907;-71
2022/01/28 09:04:00;;;;;;;9.35;1.98;;;;;;;4.12;87.05;100780.59;1667097;83;20958;-70
2022/01/28 09:06:46;;;;;;;4.35;2.30;;;;;;;4.12;87.06;100791.25;1688293;83;20937;-70
2022/01/28 09:09:31;;;;;;;9.68;1.80;;;;;;;4.15;87.05;100797.69;1664313;83;20926;-70
2022/01/28 09:12:35;;;;;;;4.30;1.27;;;;;;;4.18;87.06;100806.23;1677018;83;20939;-69
2022/01/28 09:15:15;;;;;;;6.37;1.60;;;;;;;4.20;86.95;100816.48;1708785;83;20938;-72
2022/01/28 09:17:59;;;;;;;14.83;1.67;;;;;;;4.21;86.92;100813.09;1714719;82;20977;-71
2022/01/28 09:20:44;;;;;;;6.30;1.50;;;;;;;4.21;86.93;100828.02;1692045;83;20950;-72
2022/01/28 09:23:28;;;;;;;6.03;2.12;;;;;;;4.26;87.02;100826.38;1717193;82;20934;-72
2022/01/28 09:26:14;;;;;;;4.40;1.65;;;;;;;4.30;87.03;100828.14;1676146;83;21380;-72
2022/01/28 09:28:58;;;;;;;6.80;1.70;;;;;;;4.36;86.99;100842.72;1664085;83;20943;-72
2022/01/28 09:31:42;;;;;;;5.33;1.50;;;;;;;4.39;86.92;100833.80;1674796;84;20938;-72
2022/01/28 09:34:27;;;;;;;5.95;1.40;;;;;;;4.43;86.91;100850.92;1677572;83;20955;-72
2022/01/28 09:37:13;;;;;;;6.23;1.73;;;;;;;4.44;86.72;100852.64;1689306;83;20950;-71
2022/01/28 09:39:58;;;;;;;3.83;1.15;;;;;;;4.41;86.74;100863.27;1659808;84;20934;-72
2022/01/28 09:42:44;;;;;;;7.75;3.10;;;;;;;4.42;86.73;100863.28;1668978;83;20938;-71
2022/01/28 09:45:28;;;;;;;;;;;;;;;4.40;86.65;100857.28;1690798;83;20911;-70
2022/01/28 09:48:12;;;;;;;54.45;21.17;;;;;;;4.39;86.66;100881.16;1662934;83;20107;-70
2022/01/28 09:51:03;;;;;;;5.35;2.08;;;;;;;4.40;86.63;100884.58;1670464;83;20938;-72
2022/01/28 09:53:47;;;;;;;5.28;1.80;;;;;;;4.43;86.68;100897.00;1676848;83;20907;-71
2022/01/28 09:56:32;;;;;;;4.33;1.87;;;;;;;4.47;86.61;100903.89;1689913;83;21006;-72
2022/01/28 09:59:17;;;;;;;6.03;1.80;;;;;;;4.49;86.46;100899.65;1704496;82;20965;-72
2022/01/28 10:02:01;;;;;;;8.55;3.35;;;;;;;4.52;86.32;100911.63;1694799;83;20915;-72
2022/01/28 10:04:46;;;;;;;3.58;1.00;;;;;;;4.52;86.26;100916.34;1711429;82;20895;-72
2022/01/28 10:07:30;;;;;;;1.32;0.65;;;;;;;4.54;86.32;100921.48;1684975;83;21396;-71
2022/01/28 10:10:14;;;;;;;5.20;1.98;;;;;;;4.55;86.36;100931.73;1698814;83;21412;-71
2022/01/28 10:13:19;;;;;;;63.40;26.97;;;;;;;4.60;86.42;100945.47;1682625;83;20927;-71
2022/01/28 10:16:22;;;;;;;4.65;1.25;;;;;;;4.68;86.39;100949.83;1686723;83;20966;-71
2022/01/28 10:19:11;;;;;;;3.25;1.30;;;;;;;4.70;86.22;100949.41;1688579;84;20953;-71
2022/01/28 10:21:55;;;;;;;2.87;1.10;;;;;;;4.72;86.21;100952.84;1681041;83;21391;-72
2022/01/28 10:24:39;;;;;;;3.83;1.55;;;;;;;4.74;86.26;100963.97;1678639;83;20946;-72
2022/01/28 10:27:24;;;;;;;3.80;1.17;;;;;;;4.74;86.10;100971.66;1700070;82;21494;-72
2022/01/28 10:30:09;;;;;;;1.77;0.80;;;;;;;4.72;86.09;100975.48;1665432;84;21475;-72
2022/01/28 10:33:21;;;;;;;3.40;1.37;;;;;;;4.71;86.12;100973.76;1703167;83;20936;-72
2022/01/28 10:36:06;;;;;;;13.30;6.60;;;;;;;4.72;86.15;100981.02;1698578;83;20914;-71
2022/01/28 10:38:56;;;;;;;4.17;2.40;;;;;;;4.73;86.15;100978.48;1686871;82;20928;-70
2022/01/28 10:41:57;;;;;;;3.50;1.62;;;;;;;4.77;86.16;100988.35;1670151;84;20958;-71
2022/01/28 10:44:58;;;;;;;6.53;1.15;;;;;;;4.81;85.93;100993.95;1688792;83;20954;-70
2022/01/28 10:47:47;;;;;;;12.53;8.35;;;;;;;4.78;85.90;101001.59;1710532;83;21550;-70
2022/01/28 10:50:38;;;;;;;3.80;1.30;;;;;;;4.68;85.77;101001.89;1688077;83;20923;-71
2022/01/28 10:53:25;;;;;;;2.08;1.05;;;;;;;4.62;85.81;101005.26;1696655;83;21847;-71
2022/01/28 10:56:12;;;;;;;2.55;0.98;;;;;;;4.60;85.94;101011.20;1704446;83;21026;-69
2022/01/28 10:58:58;;;;;;;3.40;1.52;;;;;;;4.61;85.98;101016.77;1676766;83;21633;-71
2022/01/28 11:01:43;;;;;;;2.70;0.88;;;;;;;4.62;85.95;101013.36;1699658;82;21065;-69
2022/01/28 11:04:28;;;;;;;2.65;1.00;;;;;;;4.65;85.87;101015.97;1700232;82;21419;-69
2022/01/28 11:07:13;;;;;;;2.80;1.27;;;;;;;4.68;85.89;101023.66;1718263;82;21057;-70
2022/01/28 11:09:57;;;;;;;4.92;1.98;;;;;;;4.69;85.68;101025.80;1711915;82;21047;-69
2022/01/28 11:12:42;;;;;;;5.15;1.10;;;;;;;4.72;85.79;101033.53;1708732;82;21042;-70
2022/01/28 11:15:29;;;;;;;3.80;1.12;;;;;;;4.77;85.82;101033.18;1710316;82;21115;-69
2022/01/28 11:18:15;;;;;;;2.12;1.00;;;;;;;4.81;85.71;101038.79;1712362;82;20942;-69
2022/01/28 11:21:05;;;;;;;2.50;0.88;;;;;;;4.84;85.54;101045.23;1695680;82;20907;-69
2022/01/28 11:24:11;;;;;;;2.25;0.90;;;;;;;4.89;85.61;101047.45;1711398;82;20962;-69
2022/01/28 11:27:33;;;;;;;2.47;0.95;;;;;;;4.92;85.59;101052.62;1673087;82;20954;-70
2022/01/28 11:30:28;;;;;;;2.37;1.05;;;;;;;4.97;85.47;101046.72;1686295;82;21022;-70
2022/01/28 11:33:14;;;;;;;1.70;1.15;;;;;;;5.01;85.55;101064.28;1663781;84;21048;-67
2022/01/28 11:36:03;;;;;;;3.55;1.07;;;;;;;5.03;85.46;101066.86;1684382;84;21399;-67
2022/01/28 11:38:48;;;;;;;3.27;1.12;;;;;;;5.03;85.36;101071.98;1683874;82;20972;-69
2022/01/28 11:41:32;;;;;;;2.05;0.80;;;;;;;5.00;85.33;101083.05;1697767;82;20974;-67
2022/01/28 11:44:39;;;;;;;6.30;1.10;;;;;;;4.99;85.33;101085.17;1637719;84;20918;-67
2022/01/28 11:47:41;;;;;;;1.35;0.65;;;;;;;4.98;85.25;101094.56;1694811;82;20935;-67
2022/01/28 11:50:26;;;;;;;3.25;0.98;;;;;;;4.93;85.08;101093.64;1702372;82;21403;-67
2022/01/28 11:53:21;;;;;;;3.40;1.10;;;;;;;4.90;85.06;101105.55;1715495;82;20936;-67
2022/01/28 11:56:06;;;;;;;2.17;0.90;;;;;;;4.88;85.05;101106.80;1707555;82;20973;-67
2022/01/28 11:59:08;;;;;;;2.12;0.88;;;;;;;4.87;84.91;101102.94;1711809;82;20940;-68
2022/01/28 12:02:01;;;;;;;2.45;0.80;;;;;;;4.89;85.03;101119.19;1693101;82;20978;-68
2022/01/28 12:04:46;;;;;;;1.92;0.82;;;;;;;4.91;84.98;101123.50;1706799;82;20954;-68
2022/01/28 12:07:32;;;;;;;1.70;0.85;;;;;;;4.94;84.88;101126.11;1712618;83;21458;-68
2022/01/28 12:10:17;;;;;;;;;;;;;;;4.93;84.90;101132.08;1686102;83;20995;-68
2022/01/28 12:13:05;;;;;;;2.72;0.65;;;;;;;4.92;84.70;101126.51;1706182;83;25736;-69
2022/01/28 12:16:02;;;;;;;2.67;0.50;;;;;;;4.93;84.82;101116.70;1709947;83;20938;-68
2022/01/28 12:18:53;;;;;;;1.07;0.50;;;;;;;4.96;84.56;101101.79;1712510;82;20939;-67
2022/01/28 12:21:38;;;;;;;1.45;0.62;;;;;;;4.91;84.43;101142.72;1705020;83;21521;-68
2022/01/28 12:24:28;;;;;;;1.65;0.80;;;;;;;4.91;84.30;101148.27;1713720;83;20966;-68
2022/01/28 12:27:13;;;;;;;0.85;0.75;;;;;;;4.87;84.44;101146.07;1711104;83;21388;-68
2022/01/28 12:30:00;;;;;;;0.78;0.55;;;;;;;4.84;84.16;101152.84;1710051;82;20943;-68
2022/01/28 12:32:46;;;;;;;;;;;;;;;4.80;84.31;101158.34;1692386;82;21042;-68
2022/01/28 12:35:31;;;;;;;1.60;1.10;;;;;;;4.78;84.28;101161.72;1716236;83;20439;-67
2022/01/28 12:38:15;;;;;;;0.50;0.40;;;;;;;4.78;84.40;101156.59;1706660;82;20903;-68
2022/01/28 12:41:07;;;;;;;1.10;0.82;;;;;;;4.78;84.43;101162.58;1711998;82;20884;-67
2022/01/28 12:43:53;;;;;;;2.08;0.82;;;;;;;4.80;84.41;101167.73;1704769;83;21031;-67
2022/01/28 12:46:39;;;;;;;1.87;0.90;;;;;;;4.80;84.43;101167.73;1687964;84;20939;-68
2022/01/28 12:49:28;;;;;;;1.62;0.75;;;;;;;4.83;84.45;101167.78;1682651;83;21521;-67
2022/01/28 12:52:12;;;;;;;1.52;1.02;;;;;;;4.84;84.40;101179.33;1682783;83;20986;-67
2022/01/28 12:54:57;;;;;;;1.67;1.00;;;;;;;4.83;84.29;101180.17;1679565;83;21323;-69
2022/01/28 12:57:46;;;;;;;2.37;0.78;;;;;;;4.86;84.28;101188.33;1683533;83;20994;-69
2022/01/28 13:00:30;;;;;;;2.35;0.75;;;;;;;4.84;84.11;101191.28;1686745;83;20951;-71
2022/01/28 13:03:27;;;;;;;0.88;0.60;;;;;;;4.83;83.72;101194.27;1693001;83;20963;-70
2022/01/28 13:09:24;;;;;;;2.15;1.05;;;;;;;4.76;83.91;101220.61;1685738;83;21019;-70
2022/01/28 13:12:13;;;;;;;1.60;0.80;;;;;;;4.72;83.86;101227.80;1690187;83;20977;-71
2022/01/28 13:15:13;;;;;;;1.67;1.07;;;;;;;4.69;83.82;101223.04;1673654;83;20965;-71
2022/01/28 13:18:02;;;;;;;1.25;0.85;;;;;;;4.63;83.66;101224.69;1697192;83;20924;-71
2022/01/28 13:20:46;;;;;;;1.72;0.90;;;;;;;4.62;83.55;101235.77;1683579;82;21545;-71
2022/01/28 13:23:34;;;;;;;1.82;0.70;;;;;;;4.61;83.44;101236.60;1686876;83;21557;-71
2022/01/28 13:26:18;;;;;;;1.40;0.70;;;;;;;4.58;83.43;101239.11;1673891;83;21458;-71
2022/01/28 13:29:06;;;;;;;0.88;0.50;;;;;;;4.57;83.21;101246.34;1694832;83;21388;-71
2022/01/28 13:31:56;;;;;;;1.07;0.80;;;;;;;4.57;83.14;101250.61;1681674;83;20906;-71
2022/01/28 13:34:50;;;;;;;1.62;0.80;;;;;;;4.55;83.04;101248.02;1687965;83;20944;-71
2022/01/28 13:37:50;;;;;;;1.60;0.68;;;;;;;4.55;83.02;101250.58;1696292;82;20891;-71
2022/01/28 13:40:37;;;;;;;2.58;1.35;;;;;;;4.55;82.66;101253.14;1709153;83;21363;-71
2022/01/28 13:43:23;;;;;;;0.90;0.70;;;;;;;4.53;82.67;101268.02;1688331;82;21025;-71
2022/01/28 13:46:14;;;;;;;1.62;0.70;;;;;;;4.53;82.39;101266.75;1698286;83;21664;-71
2022/01/28 13:48:58;;;;;;;1.30;0.78;;;;;;;4.51;82.53;101254.33;1707174;83;20912;-71
2022/01/28 13:51:43;;;;;;;3.02;0.90;;;;;;;4.46;82.39;101265.77;1688152;83;21550;-71
2022/01/28 13:54:31;;;;;;;1.80;1.00;;;;;;;4.43;82.27;101265.70;1684937;83;21351;-71
2022/01/28 13:57:16;;;;;;;1.45;0.70;;;;;;;4.39;82.23;101260.49;1687754;83;21069;-71
2022/01/28 14:00:03;;;;;;;1.75;0.70;;;;;;;4.32;81.77;101264.63;1687255;83;21090;-71
2022/01/28 14:02:48;;;;;;;1.98;0.90;;;;;;;4.28;81.99;101280.77;1709778;82;20903;-71
2022/01/28 14:06:00;;;;;;;1.60;1.00;;;;;;;4.24;81.72;101288.80;1691248;83;20946;-71
2022/01/28 14:08:53;;;;;;;3.87;0.82;;;;;;;4.18;81.69;101292.50;1706028;83;20907;-71
2022/01/28 14:11:49;;;;;;;2.55;0.68;;;;;;;4.12;81.46;101302.64;1701018;82;20946;-71
2022/01/28 14:14:43;;;;;;;2.15;0.62;;;;;;;4.06;81.40;101318.28;1715251;83;21411;-71
2022/01/28 14:17:23;;;;;;;2.30;1.12;;;;;;;4.01;81.25;101328.42;1704212;83;20990;-71
2022/01/28 14:20:10;;;;;;;1.27;0.60;;;;;;;4.01;81.37;101332.67;1704803;83;21074;-71
2022/01/28 14:22:54;;;;;;;2.50;0.90;;;;;;;3.98;81.35;101345.84;1702156;82;20962;-71
2022/01/28 14:25:39;;;;;;;1.27;0.88;;;;;;;3.95;81.24;101343.63;1696868;83;20987;-71
2022/01/28 14:31:15;;;;;;;2.15;1.12;;;;;;;3.86;81.13;101357.48;1701238;82;21374;-71